createdAt,value
2018-05-27T00:01:32.631Z,22.50
2018-05-27T00:04:00.264Z,22.40
2018-05-27T00:06:28.708Z,22.40
2018-05-27T00:08:56.337Z,22.40
2018-05-27T00:11:24.774Z,22.90
2018-05-27T00:13:52.474Z,22.90
2018-05-27T00:16:20.133Z,22.60
2018-05-27T00:18:47.779Z,22.40
2018-05-27T00:21:15.463Z,22.50
2018-05-27T00:23:43.106Z,23.00
2018-05-27T00:26:10.800Z,22.70
2018-05-27T00:28:38.483Z,22.40
2018-05-27T00:31:06.160Z,22.50
2018-05-27T00:33:33.796Z,21.80
2018-05-27T00:36:02.225Z,22.30
2018-05-27T00:38:29.869Z,22.30
2018-05-27T00:40:57.532Z,22.70
2018-05-27T00:43:25.941Z,23.40
2018-05-27T00:45:53.628Z,23.40
2018-05-27T00:48:21.279Z,23.00
2018-05-27T00:50:48.908Z,23.50
2018-05-27T00:53:16.589Z,23.70
2018-05-27T00:55:44.996Z,23.20
2018-05-27T00:58:13.449Z,22.80
2018-05-27T01:00:41.133Z,22.80
2018-05-27T01:03:08.845Z,23.10
2018-05-27T01:05:37.249Z,22.30
2018-05-27T01:08:04.960Z,22.30
2018-05-27T01:10:32.600Z,22.40
2018-05-27T01:13:00.275Z,22.40
2018-05-27T01:15:27.932Z,23.00
2018-05-27T01:17:55.618Z,23.20
2018-05-27T01:20:24.034Z,23.40
2018-05-27T01:22:51.695Z,23.40
2018-05-27T01:25:19.341Z,23.50
2018-05-27T01:27:47.805Z,23.60
2018-05-27T01:30:15.428Z,23.60
2018-05-27T01:32:43.069Z,23.80
2018-05-27T01:35:10.764Z,23.90
2018-05-27T01:37:39.199Z,24.00
2018-05-27T01:40:06.901Z,24.00
2018-05-27T01:42:34.541Z,24.10
2018-05-27T01:45:02.216Z,24.00
2018-05-27T01:47:29.853Z,23.40
2018-05-27T01:49:57.520Z,23.30
2018-05-27T01:52:25.921Z,23.70
2018-05-27T01:54:53.600Z,23.70
2018-05-27T01:57:21.256Z,23.80
2018-05-27T01:59:49.705Z,23.40
2018-05-27T02:02:17.344Z,23.40
2018-05-27T02:04:45.016Z,23.40
2018-05-27T02:07:12.687Z,22.90
2018-05-27T02:09:40.385Z,22.60
2018-05-27T02:12:08.059Z,22.10
2018-05-27T02:14:35.717Z,22.90
2018-05-27T02:17:03.400Z,23.20
2018-05-27T02:19:31.037Z,22.90
2018-05-27T02:21:59.468Z,22.80
2018-05-27T02:24:27.109Z,22.90
2018-05-27T02:26:54.781Z,22.90
2018-05-27T02:29:23.206Z,23.50
2018-05-27T02:31:50.881Z,23.40
2018-05-27T02:34:18.512Z,23.50
2018-05-27T02:36:46.944Z,23.60
2018-05-27T02:39:14.593Z,23.50
2018-05-27T02:41:42.276Z,23.50
2018-05-27T02:44:09.915Z,23.50
2018-05-27T02:46:38.376Z,23.50
2018-05-27T02:49:06.017Z,23.50
2018-05-27T02:51:33.723Z,23.50
2018-05-27T02:54:01.405Z,23.40
2018-05-27T02:56:29.097Z,23.40
2018-05-27T02:58:56.730Z,23.40
2018-05-27T03:01:24.365Z,23.30
2018-05-27T03:03:52.049Z,23.20
2018-05-27T03:06:19.692Z,23.20
2018-05-27T03:08:47.373Z,23.20
2018-05-27T03:11:15.013Z,23.20
2018-05-27T03:13:42.748Z,22.90
2018-05-27T03:16:10.419Z,22.90
2018-05-27T03:18:38.128Z,22.80
2018-05-27T03:21:05.761Z,22.80
2018-05-27T03:23:34.192Z,22.60
2018-05-27T03:26:01.821Z,22.60
2018-05-27T03:28:30.257Z,22.10
2018-05-27T03:30:57.901Z,22.10
2018-05-27T03:33:25.572Z,22.40
2018-05-27T03:35:53.221Z,22.50
2018-05-27T03:38:20.897Z,22.60
2018-05-27T03:40:49.303Z,22.90
2018-05-27T03:43:16.984Z,22.90
2018-05-27T03:45:44.641Z,22.90
2018-05-27T03:48:13.094Z,22.80
2018-05-27T03:50:40.757Z,22.80
2018-05-27T03:53:08.461Z,22.60
2018-05-27T03:55:36.107Z,22.80
2018-05-27T03:58:03.752Z,22.80
2018-05-27T04:00:31.425Z,22.80
2018-05-27T04:02:59.069Z,22.20
2018-05-27T04:05:39.173Z,22.20
2018-05-27T04:08:18.637Z,22.20
2018-05-27T04:10:46.273Z,22.50
2018-05-27T04:13:14.676Z,22.40
2018-05-27T04:15:42.366Z,22.40
2018-05-27T04:18:10.035Z,22.90
2018-05-27T04:20:37.785Z,23.10
2018-05-27T04:23:06.228Z,22.90
2018-05-27T04:25:33.917Z,22.90
2018-05-27T04:28:01.548Z,23.10
2018-05-27T04:30:29.229Z,23.10
2018-05-27T04:32:56.872Z,22.70
2018-05-27T04:35:25.309Z,22.70
2018-05-27T04:37:52.947Z,22.70
2018-05-27T04:40:20.616Z,23.70
2018-05-27T04:42:49.044Z,24.20
2018-05-27T04:45:16.722Z,24.10
2018-05-27T04:47:44.355Z,24.80
2018-05-27T04:50:12.053Z,24.80
2018-05-27T04:52:39.778Z,25.90
2018-05-27T04:55:07.457Z,25.30
2018-05-27T04:57:35.865Z,25.30
2018-05-27T05:00:03.576Z,25.30
2018-05-27T05:02:31.212Z,24.90
2018-05-27T05:04:58.872Z,25.60
2018-05-27T05:07:26.540Z,26.10
2018-05-27T05:09:54.189Z,26.70
2018-05-27T05:12:21.872Z,25.80
2018-05-27T05:14:49.563Z,26.30
2018-05-27T05:17:17.233Z,25.50
2018-05-27T05:19:44.864Z,24.80
2018-05-27T05:22:12.598Z,24.10
2018-05-27T05:24:41.009Z,22.40
2018-05-27T05:27:08.716Z,22.40
2018-05-27T05:29:36.373Z,22.80
2018-05-27T05:32:04.049Z,22.50
2018-05-27T05:34:31.685Z,22.10
2018-05-27T05:36:59.360Z,22.80
2018-05-27T05:39:27.757Z,22.60
2018-05-27T05:41:56.183Z,22.50
2018-05-27T05:44:23.817Z,22.60
2018-05-27T05:46:52.245Z,24.00
2018-05-27T05:49:19.895Z,24.00
2018-05-27T05:51:47.584Z,22.90
2018-05-27T05:54:15.247Z,21.90
2018-05-27T05:56:42.957Z,21.80
2018-05-27T05:59:10.614Z,22.60
2018-05-27T06:01:38.392Z,22.80
2018-05-27T06:04:06.070Z,22.40
2018-05-27T06:06:33.740Z,22.40
2018-05-27T06:09:01.405Z,22.50
2018-05-27T06:11:29.038Z,22.80
2018-05-27T06:13:57.473Z,22.60
2018-05-27T06:16:25.099Z,22.60
2018-05-27T06:18:52.761Z,23.70
2018-05-27T06:21:20.398Z,24.20
2018-05-27T06:23:48.063Z,25.20
2018-05-27T06:26:15.716Z,25.80
2018-05-27T06:28:43.425Z,27.10
2018-05-27T06:31:11.080Z,28.70
2018-05-27T06:33:38.795Z,28.00
2018-05-27T06:36:06.485Z,27.20
2018-05-27T06:38:34.152Z,26.70
2018-05-27T06:41:01.798Z,26.60
2018-05-27T06:43:29.472Z,28.30
2018-05-27T06:45:57.102Z,28.30
2018-05-27T06:48:25.557Z,28.80
2018-05-27T06:50:53.189Z,28.80
2018-05-27T06:53:20.824Z,28.80
2018-05-27T06:55:48.521Z,28.90
2018-05-27T06:58:16.173Z,28.30
2018-05-27T07:00:43.852Z,28.80
2018-05-27T07:03:12.281Z,24.90
2018-05-27T07:05:39.989Z,24.80
2018-05-27T07:08:07.655Z,25.00
2018-05-27T07:10:35.328Z,24.00
2018-05-27T07:13:02.960Z,23.80
2018-05-27T07:15:30.676Z,24.60
2018-05-27T07:17:58.321Z,25.10
2018-05-27T07:20:25.993Z,24.10
2018-05-27T07:22:53.675Z,24.00
2018-05-27T07:25:21.357Z,23.50
2018-05-27T07:27:49.014Z,23.90
2018-05-27T07:30:16.684Z,23.50
2018-05-27T07:32:44.420Z,23.50
2018-05-27T07:35:12.133Z,23.40
2018-05-27T07:37:39.796Z,23.80
2018-05-27T07:40:08.277Z,24.30
2018-05-27T07:42:36.719Z,23.90
2018-05-27T07:45:04.413Z,23.90
2018-05-27T07:47:32.081Z,25.90
2018-05-27T07:49:59.791Z,26.40
2018-05-27T07:52:28.286Z,26.50
2018-05-27T07:54:55.912Z,26.50
2018-05-27T07:57:23.589Z,27.40
2018-05-27T07:59:51.211Z,28.40
2018-05-27T08:02:19.648Z,29.20
2018-05-27T08:04:47.293Z,29.20
2018-05-27T08:07:15.009Z,28.30
2018-05-27T08:09:42.645Z,28.60
2018-05-27T08:12:10.341Z,29.90
2018-05-27T08:14:38.002Z,28.50
2018-05-27T08:17:05.688Z,27.70
2018-05-27T08:19:33.314Z,28.10
2018-05-27T08:22:01.752Z,26.80
2018-05-27T08:24:29.476Z,26.80
2018-05-27T08:26:57.956Z,28.40
2018-05-27T08:29:25.603Z,28.40
2018-05-27T08:31:53.285Z,28.00
2018-05-27T08:34:20.917Z,28.60
2018-05-27T08:36:48.589Z,27.90
2018-05-27T08:39:16.220Z,28.30
2018-05-27T08:41:43.957Z,29.30
2018-05-27T08:44:11.700Z,29.70
2018-05-27T08:46:39.357Z,30.40
2018-05-27T08:49:07.814Z,30.00
2018-05-27T08:51:35.456Z,29.90
2018-05-27T08:54:03.130Z,30.00
2018-05-27T08:56:30.872Z,30.00
2018-05-27T08:58:58.641Z,30.20
2018-05-27T09:01:26.313Z,31.50
2018-05-27T09:03:54.017Z,31.50
2018-05-27T09:06:21.665Z,31.70
2018-05-27T09:08:49.348Z,30.90
2018-05-27T09:11:17.748Z,30.10
2018-05-27T09:13:46.185Z,30.00
2018-05-27T09:16:13.916Z,30.00
2018-05-27T09:18:42.596Z,29.50
2018-05-27T09:21:11.109Z,30.50
2018-05-27T09:23:39.676Z,31.20
2018-05-27T09:26:08.129Z,31.20
2018-05-27T09:28:35.814Z,31.20
2018-05-27T09:31:03.480Z,31.70
2018-05-27T09:33:31.172Z,29.70
2018-05-27T09:35:58.862Z,30.40
2018-05-27T09:38:26.497Z,30.50
2018-05-27T09:40:54.314Z,31.40
2018-05-27T09:43:22.037Z,30.60
2018-05-27T09:45:50.279Z,30.30
2018-05-27T09:48:18.904Z,31.50
2018-05-27T09:50:46.585Z,31.50
2018-05-27T09:53:14.308Z,29.80
2018-05-27T09:55:41.994Z,30.40
2018-05-27T09:58:09.687Z,30.70
2018-05-27T10:00:38.125Z,30.90
2018-05-27T10:03:16.225Z,31.00
2018-05-27T10:05:44.669Z,31.90
2018-05-27T10:08:12.348Z,31.30
2018-05-27T10:10:40.013Z,32.00
2018-05-27T10:13:07.661Z,31.00
2018-05-27T10:15:36.174Z,31.40
2018-05-27T10:18:03.931Z,31.40
2018-05-27T10:20:31.661Z,31.70
2018-05-27T10:22:59.370Z,31.70
2018-05-27T10:25:27.819Z,30.50
2018-05-27T10:27:55.452Z,30.50
2018-05-27T10:30:26.659Z,31.30
2018-05-27T10:32:54.453Z,30.70
2018-05-27T10:35:22.148Z,31.60
2018-05-27T10:37:49.845Z,32.40
2018-05-27T10:40:17.528Z,31.00
2018-05-27T10:42:45.222Z,32.10
2018-05-27T10:45:12.861Z,32.40
2018-05-27T10:47:40.585Z,31.50
2018-05-27T10:50:09.025Z,30.90
2018-05-27T10:52:36.701Z,30.90
2018-05-27T10:55:04.364Z,30.90
2018-05-27T10:57:32.041Z,30.40
2018-05-27T10:59:59.695Z,30.80
2018-05-27T11:02:27.376Z,30.70
2018-05-27T11:04:58.071Z,31.20
2018-05-27T11:07:25.753Z,31.20
2018-05-27T11:09:53.436Z,30.80
2018-05-27T11:12:21.157Z,30.60
2018-05-27T11:14:49.612Z,30.40
2018-05-27T11:17:17.323Z,30.50
2018-05-27T11:19:44.960Z,29.60
2018-05-27T11:22:12.624Z,29.90
2018-05-27T11:24:40.309Z,30.20
2018-05-27T11:27:08.009Z,30.70
2018-05-27T11:29:35.640Z,30.80
2018-05-27T11:32:03.284Z,30.90
2018-05-27T11:34:31.732Z,30.50
2018-05-27T11:36:59.422Z,30.50
2018-05-27T11:39:27.070Z,31.00
2018-05-27T11:41:54.713Z,30.60
2018-05-27T11:44:22.376Z,30.80
2018-05-27T11:46:50.802Z,30.00
2018-05-27T11:49:18.485Z,29.90
2018-05-27T11:51:46.123Z,29.70
2018-05-27T11:54:13.840Z,29.20
2018-05-27T11:56:41.483Z,29.30
2018-05-27T11:59:09.152Z,29.40
2018-05-27T12:01:36.797Z,28.60
2018-05-27T12:04:04.494Z,27.80
2018-05-27T12:06:32.226Z,27.90
2018-05-27T12:09:00.019Z,26.70
2018-05-27T12:11:28.616Z,27.20
2018-05-27T12:13:57.034Z,26.70
2018-05-27T12:16:24.710Z,26.70
2018-05-27T12:18:52.351Z,24.60
2018-05-27T12:21:20.034Z,24.10
2018-05-27T12:23:48.463Z,23.90
2018-05-27T12:26:16.149Z,23.90
2018-05-27T12:28:43.798Z,23.80
2018-05-27T12:31:11.473Z,24.10
2018-05-27T12:33:39.111Z,24.40
2018-05-27T12:36:06.785Z,25.00
2018-05-27T12:38:34.457Z,24.50
2018-05-27T12:41:02.176Z,24.50
2018-05-27T12:43:29.865Z,25.10
2018-05-27T12:45:57.552Z,25.80
2018-05-27T12:48:25.188Z,26.70
2018-05-27T12:50:52.855Z,27.20
2018-05-27T12:53:20.497Z,27.70
2018-05-27T12:55:48.194Z,28.10
2018-05-27T12:58:16.592Z,28.70
2018-05-27T13:00:44.268Z,28.70
2018-05-27T13:03:12.665Z,28.60
2018-05-27T13:05:40.288Z,28.60
2018-05-27T13:08:07.964Z,28.00
2018-05-27T13:10:35.588Z,28.40
2018-05-27T13:13:03.308Z,28.50
2018-05-27T13:15:30.964Z,28.80
2018-05-27T13:17:58.704Z,28.90
2018-05-27T13:20:26.341Z,28.80
2018-05-27T13:22:54.020Z,28.90
2018-05-27T13:25:21.804Z,28.80
2018-05-27T13:27:49.497Z,28.80
2018-05-27T13:30:17.908Z,28.00
2018-05-27T13:32:45.576Z,28.00
2018-05-27T13:35:13.204Z,27.80
2018-05-27T13:37:40.876Z,26.40
2018-05-27T13:40:08.508Z,25.70
2018-05-27T13:42:36.189Z,24.50
2018-05-27T13:45:03.938Z,24.40
2018-05-27T13:47:31.625Z,24.80
2018-05-27T13:49:59.297Z,25.50
2018-05-27T13:52:26.928Z,26.40
2018-05-27T13:54:54.604Z,25.50
2018-05-27T13:57:22.237Z,24.50
2018-05-27T13:59:49.921Z,24.90
2018-05-27T14:02:17.626Z,25.10
2018-05-27T14:04:45.333Z,25.10
2018-05-27T14:07:12.974Z,25.70
2018-05-27T14:09:40.647Z,25.40
2018-05-27T14:12:08.291Z,25.50
2018-05-27T14:14:35.956Z,26.30
2018-05-27T14:17:03.633Z,26.30
2018-05-27T14:19:31.377Z,25.90
2018-05-27T14:21:59.030Z,26.10
2018-05-27T14:24:27.478Z,25.90
2018-05-27T14:26:55.120Z,25.90
2018-05-27T14:29:22.780Z,25.60
2018-05-27T14:31:51.185Z,24.90
2018-05-27T14:34:18.868Z,24.90
2018-05-27T14:36:46.496Z,25.10
2018-05-27T14:39:14.141Z,25.20
2018-05-27T14:41:41.819Z,25.60
2018-05-27T14:44:09.449Z,26.20
2018-05-27T14:46:37.125Z,26.60
2018-05-27T14:49:04.902Z,26.20
2018-05-27T14:51:33.376Z,26.10
2018-05-27T14:54:01.070Z,26.00
2018-05-27T14:56:28.748Z,25.90
2018-05-27T14:58:56.384Z,25.90
2018-05-27T15:01:24.052Z,26.60
2018-05-27T15:03:51.686Z,25.60
2018-05-27T15:06:19.370Z,26.00
2018-05-27T15:08:47.029Z,26.10
2018-05-27T15:11:14.717Z,26.10
2018-05-27T15:13:42.359Z,26.10
2018-05-27T15:16:10.031Z,25.50
2018-05-27T15:18:37.763Z,25.80
2018-05-27T15:21:05.403Z,25.90
2018-05-27T15:23:33.122Z,26.30
2018-05-27T15:26:00.798Z,26.10
2018-05-27T15:28:29.282Z,25.30
2018-05-27T15:30:56.912Z,25.20
2018-05-27T15:33:24.583Z,25.20
2018-05-27T15:35:52.253Z,25.20
2018-05-27T15:38:19.960Z,25.00
2018-05-27T15:40:47.604Z,24.40
2018-05-27T15:43:15.272Z,24.40
2018-05-27T15:45:42.904Z,24.70
2018-05-27T15:48:10.592Z,24.60
2018-05-27T15:50:39.001Z,24.70
2018-05-27T15:53:06.675Z,24.70
2018-05-27T15:55:34.335Z,24.80
2018-05-27T15:58:02.042Z,24.60
2018-05-27T16:00:29.684Z,23.70
2018-05-27T16:02:57.377Z,24.30
2018-05-27T16:05:25.072Z,24.60
2018-05-27T16:07:52.732Z,24.70
2018-05-27T16:10:20.382Z,24.20
2018-05-27T16:12:48.832Z,24.20
2018-05-27T16:15:16.473Z,24.10
2018-05-27T16:17:44.183Z,24.70
2018-05-27T16:20:11.824Z,24.70
2018-05-27T16:22:39.460Z,25.10
2018-05-27T16:25:07.934Z,24.20
2018-05-27T16:27:35.574Z,24.10
2018-05-27T16:30:03.300Z,24.10
2018-05-27T16:32:30.973Z,23.30
2018-05-27T16:34:58.704Z,23.70
2018-05-27T16:37:26.363Z,24.10
2018-05-27T16:39:54.029Z,24.50
2018-05-27T16:42:21.669Z,24.60
2018-05-27T16:44:50.101Z,24.20
2018-05-27T16:47:17.765Z,24.20
2018-05-27T16:49:45.437Z,24.30
2018-05-27T16:52:13.060Z,24.60
2018-05-27T16:54:40.768Z,24.10
2018-05-27T16:57:09.172Z,24.40
2018-05-27T16:59:36.852Z,24.40
2018-05-27T17:02:04.573Z,24.00
2018-05-27T17:04:32.264Z,24.20
2018-05-27T17:06:59.929Z,24.30
2018-05-27T17:09:27.628Z,24.40
2018-05-27T17:11:56.071Z,22.50
2018-05-27T17:14:23.709Z,22.40
2018-05-27T17:16:51.389Z,21.50
2018-05-27T17:19:19.012Z,21.30
2018-05-27T17:21:46.685Z,21.60
2018-05-27T17:24:17.605Z,22.10
2018-05-27T17:26:46.040Z,21.60
2018-05-27T17:29:13.688Z,21.60
2018-05-27T17:31:41.381Z,21.60
2018-05-27T17:34:09.033Z,22.20
2018-05-27T17:36:36.757Z,22.20
2018-05-27T17:39:04.459Z,21.80
2018-05-27T17:41:32.900Z,23.00
2018-05-27T17:44:00.533Z,23.00
2018-05-27T17:46:28.224Z,23.40
2018-05-27T17:48:55.906Z,23.10
2018-05-27T17:51:23.592Z,22.40
2018-05-27T17:53:51.233Z,22.60
2018-05-27T17:56:19.660Z,23.80
2018-05-27T17:58:47.304Z,23.70
2018-05-27T18:01:14.978Z,24.00
2018-05-27T18:03:42.673Z,23.90
2018-05-27T18:06:10.404Z,24.10
2018-05-27T18:08:38.067Z,23.60
2018-05-27T18:11:05.711Z,23.50
2018-05-27T18:13:33.388Z,23.70
2018-05-27T18:16:01.021Z,23.60
2018-05-27T18:18:28.697Z,23.50
2018-05-27T18:20:56.328Z,23.10
2018-05-27T18:23:23.993Z,23.20
2018-05-27T18:25:51.629Z,23.10
2018-05-27T18:28:19.305Z,23.10
2018-05-27T18:30:46.981Z,22.90
2018-05-27T18:33:14.700Z,23.20
2018-05-27T18:35:43.124Z,23.10
2018-05-27T18:38:10.835Z,23.10
2018-05-27T18:40:38.473Z,23.50
2018-05-27T18:43:06.154Z,23.80
2018-05-27T18:45:33.809Z,23.80
2018-05-27T18:48:02.270Z,23.70
2018-05-27T18:50:29.903Z,23.70
2018-05-27T18:52:57.572Z,23.60
2018-05-27T18:55:25.200Z,23.70
2018-05-27T18:57:52.836Z,23.70
2018-05-27T19:00:20.500Z,23.70
2018-05-27T19:02:48.172Z,23.70
2018-05-27T19:05:15.856Z,23.60
2018-05-27T19:07:43.504Z,23.60
2018-05-27T19:10:11.188Z,23.60
2018-05-27T19:12:38.820Z,23.50
2018-05-27T19:15:06.530Z,23.20
2018-05-27T19:17:34.186Z,22.90
2018-05-27T19:20:02.634Z,22.70
2018-05-27T19:22:30.276Z,22.60
2018-05-27T19:24:57.945Z,22.80
2018-05-27T19:27:26.439Z,22.60
2018-05-27T19:29:54.104Z,22.90
2018-05-27T19:32:21.732Z,22.80
2018-05-27T19:34:49.421Z,22.80
2018-05-27T19:37:17.062Z,22.90
2018-05-27T19:39:44.751Z,22.80
2018-05-27T19:42:12.438Z,22.90
2018-05-27T19:44:40.104Z,22.90
2018-05-27T19:47:07.738Z,22.30
2018-05-27T19:49:35.364Z,22.00
2018-05-27T19:52:03.041Z,21.40
2018-05-27T19:54:30.673Z,21.60
2018-05-27T19:56:58.341Z,22.10
2018-05-27T19:59:25.978Z,22.10
2018-05-27T20:01:54.412Z,21.70
2018-05-27T20:04:22.053Z,21.70
2018-05-27T20:06:49.732Z,21.60
2018-05-27T20:09:17.393Z,21.30
2018-05-27T20:11:45.090Z,21.40
2018-05-27T20:14:12.738Z,21.60
2018-05-27T20:16:40.409Z,21.40
2018-05-27T20:19:08.815Z,20.90
2018-05-27T20:21:36.491Z,20.80
2018-05-27T20:24:04.137Z,21.10
2018-05-27T20:26:32.576Z,20.70
2018-05-27T20:29:00.215Z,20.70
2018-05-27T20:31:28.661Z,20.80
2018-05-27T20:33:56.296Z,20.80
2018-05-27T20:36:23.934Z,20.80
2018-05-27T20:38:51.596Z,21.00
2018-05-27T20:41:19.260Z,21.40
2018-05-27T20:43:46.961Z,21.60
2018-05-27T20:46:15.425Z,20.90
2018-05-27T20:48:43.112Z,20.90
2018-05-27T20:51:10.749Z,20.90
2018-05-27T20:53:38.456Z,21.00
2018-05-27T20:56:06.097Z,21.00
2018-05-27T20:58:33.772Z,20.60
2018-05-27T21:01:01.412Z,20.80
2018-05-27T21:03:29.845Z,21.40
2018-05-27T21:05:57.480Z,21.40
2018-05-27T21:08:25.148Z,21.90
2018-05-27T21:10:52.788Z,22.10
2018-05-27T21:13:20.483Z,22.30
2018-05-27T21:15:48.237Z,21.50
2018-05-27T21:18:15.926Z,21.10
2018-05-27T21:20:44.396Z,21.10
2018-05-27T21:23:12.053Z,21.10
2018-05-27T21:25:39.721Z,21.80
2018-05-27T21:28:07.373Z,22.10
2018-05-27T21:30:35.045Z,22.20
2018-05-27T21:33:02.680Z,21.90
2018-05-27T21:35:30.352Z,22.00
2018-05-27T21:37:58.004Z,21.20
2018-05-27T21:40:25.688Z,21.50
2018-05-27T21:42:53.321Z,21.90
2018-05-27T21:45:21.000Z,22.10
2018-05-27T21:47:48.649Z,22.10
2018-05-27T21:50:17.092Z,22.40
2018-05-27T21:52:44.745Z,22.40
2018-05-27T21:55:12.414Z,22.40
2018-05-27T21:57:40.052Z,22.00
2018-05-27T22:00:08.505Z,21.90
2018-05-27T22:02:36.169Z,21.90
2018-05-27T22:05:03.853Z,21.70
2018-05-27T22:07:31.521Z,21.60
2018-05-27T22:09:59.152Z,21.60
2018-05-27T22:12:26.832Z,20.60
2018-05-27T22:14:54.452Z,20.60
2018-05-27T22:17:22.124Z,21.20
2018-05-27T22:19:49.792Z,21.40
2018-05-27T22:22:17.518Z,21.60
2018-05-27T22:24:46.000Z,21.80
2018-05-27T22:27:14.461Z,22.00
2018-05-27T22:29:42.097Z,22.00
2018-05-27T22:32:09.764Z,22.00
2018-05-27T22:34:37.396Z,21.90
2018-05-27T22:37:05.066Z,22.00
2018-05-27T22:39:32.709Z,22.00
2018-05-27T22:42:00.381Z,22.00
2018-05-27T22:44:28.009Z,22.00
2018-05-27T22:46:56.440Z,22.00
2018-05-27T22:49:24.124Z,22.00
2018-05-27T22:51:51.752Z,21.90
2018-05-27T22:54:20.188Z,21.90
2018-05-27T22:56:47.840Z,21.90
2018-05-27T22:59:15.568Z,21.90
2018-05-27T23:01:43.228Z,22.00
2018-05-27T23:04:10.892Z,22.00
2018-05-27T23:06:38.532Z,22.00
2018-05-27T23:09:06.225Z,22.00
2018-05-27T23:11:33.857Z,21.90
2018-05-27T23:14:02.316Z,21.90
2018-05-27T23:16:29.952Z,21.90
2018-05-27T23:18:57.620Z,21.80
2018-05-27T23:21:25.260Z,21.80
2018-05-27T23:23:53.712Z,21.80
2018-05-27T23:26:21.348Z,21.80
2018-05-27T23:28:49.077Z,21.80
2018-05-27T23:31:16.735Z,21.70
2018-05-27T23:33:44.420Z,21.20
2018-05-27T23:36:12.157Z,21.00
2018-05-27T23:38:39.764Z,21.10
2018-05-27T23:41:07.396Z,21.40
2018-05-27T23:43:35.063Z,21.60
2018-05-27T23:46:03.485Z,21.60
2018-05-27T23:48:31.174Z,21.60
2018-05-27T23:50:58.801Z,21.50
2018-05-27T23:53:27.252Z,21.60
2018-05-27T23:55:54.921Z,21.50
2018-05-27T23:58:22.565Z,21.50
